createdAt,value
2016-12-03T00:00:28.396Z,77.54
2016-12-03T00:01:28.402Z,77.54
2016-12-03T00:02:28.413Z,77.45
2016-12-03T00:03:28.427Z,77.64
2016-12-03T00:04:28.444Z,77.73
2016-12-03T00:05:28.449Z,77.35
2016-12-03T00:06:28.457Z,77.64
2016-12-03T00:07:28.476Z,77.54
2016-12-03T00:08:28.479Z,77.06
2016-12-03T00:09:28.490Z,77.64
2016-12-03T00:10:28.501Z,77.73
2016-12-03T00:11:28.515Z,77.64
2016-12-03T00:12:28.529Z,77.73
2016-12-03T00:13:28.540Z,77.06
2016-12-03T00:14:28.551Z,77.64
2016-12-03T00:15:28.560Z,77.16
2016-12-03T00:16:28.567Z,77.83
2016-12-03T00:17:28.581Z,77.64
2016-12-03T00:18:28.592Z,77.64
2016-12-03T00:19:28.601Z,77.73
2016-12-03T00:20:28.619Z,77.92
2016-12-03T00:21:28.633Z,77.54
2016-12-03T00:22:28.640Z,77.64
2016-12-03T00:23:28.682Z,77.83
2016-12-03T00:24:28.665Z,77.73
2016-12-03T00:25:28.669Z,78.02
2016-12-03T00:26:28.685Z,78.2
2016-12-03T00:27:28.695Z,77.83
2016-12-03T00:28:28.704Z,77.54
2016-12-03T00:29:28.716Z,77.54
2016-12-03T00:30:28.728Z,77.73
2016-12-03T00:31:28.736Z,77.73
2016-12-03T00:32:28.746Z,77.45
2016-12-03T00:33:28.762Z,77.45
2016-12-03T00:34:28.774Z,77.54
2016-12-03T00:35:28.781Z,77.35
2016-12-03T00:36:28.793Z,77.73
2016-12-03T00:37:28.810Z,77.83
2016-12-03T00:38:28.819Z,78.02
2016-12-03T00:39:28.827Z,78.11
2016-12-03T00:40:28.838Z,77.83
2016-12-03T00:41:28.852Z,77.54
2016-12-03T00:42:28.862Z,77.64
2016-12-03T00:43:28.875Z,77.78
2016-12-03T00:44:28.884Z,77.83
2016-12-03T00:45:28.896Z,77.88
2016-12-03T00:46:28.904Z,77.83
2016-12-03T00:47:28.921Z,77.22
2016-12-03T00:48:28.925Z,77.4
2016-12-03T00:49:28.937Z,77.59
2016-12-03T00:50:28.954Z,77.69
2016-12-03T00:51:28.968Z,77.5
2016-12-03T00:52:28.976Z,77.5
2016-12-03T00:53:28.982Z,77.4
2016-12-03T00:54:28.991Z,77.78
2016-12-03T00:55:29.001Z,77.4
2016-12-03T00:56:29.014Z,77.4
2016-12-03T00:57:29.037Z,77.59
2016-12-03T00:58:29.044Z,77.22
2016-12-03T00:59:29.046Z,77.59
2016-12-03T01:00:29.064Z,77.59
2016-12-03T01:01:29.075Z,77.31
2016-12-03T01:02:29.089Z,77.78
2016-12-03T01:03:29.090Z,77.78
2016-12-03T01:04:29.101Z,77.97
2016-12-03T01:05:29.112Z,77.88
2016-12-03T01:06:29.134Z,77.97
2016-12-03T01:07:29.169Z,77.69
2016-12-03T01:08:29.144Z,77.97
2016-12-03T01:09:29.166Z,77.97
2016-12-03T01:10:29.174Z,77.88
2016-12-03T01:11:29.179Z,77.78
2016-12-03T01:12:29.188Z,77.78
2016-12-03T01:13:29.199Z,77.97
2016-12-03T01:14:29.218Z,77.97
2016-12-03T01:15:29.224Z,77.88
2016-12-03T01:16:29.234Z,78.16
2016-12-03T01:17:29.256Z,77.69
2016-12-03T01:18:29.261Z,77.88
2016-12-03T01:19:29.269Z,78.07
2016-12-03T01:20:29.275Z,78.26
2016-12-03T01:21:29.287Z,77.97
2016-12-03T01:22:29.330Z,77.78
2016-12-03T01:23:29.312Z,77.5
2016-12-03T01:24:29.324Z,77.78
2016-12-03T01:25:29.342Z,77.78
2016-12-03T01:26:29.353Z,77.78
2016-12-03T01:27:29.682Z,77.97
2016-12-03T01:28:29.700Z,77.69
2016-12-03T01:29:29.378Z,77.97
2016-12-03T01:30:29.385Z,78.16
2016-12-03T01:31:29.398Z,78.16
2016-12-03T01:32:29.406Z,78.26
2016-12-03T01:33:29.416Z,77.88
2016-12-03T01:34:29.440Z,77.78
2016-12-03T01:35:29.449Z,77.78
2016-12-03T01:36:29.459Z,78.07
2016-12-03T01:37:29.461Z,77.97
2016-12-03T01:38:29.472Z,77.59
2016-12-03T01:39:29.499Z,77.59
2016-12-03T01:40:29.499Z,77.78
2016-12-03T01:41:29.541Z,77.5
2016-12-03T01:42:29.519Z,77.69
2016-12-03T01:43:29.530Z,77.97
2016-12-03T01:44:29.539Z,77.78
2016-12-03T01:45:29.547Z,77.88
2016-12-03T01:46:29.565Z,77.88
2016-12-03T01:47:29.578Z,77.88
2016-12-03T01:48:29.583Z,78.07
2016-12-03T01:49:29.605Z,77.69
2016-12-03T01:50:29.609Z,77.78
2016-12-03T01:51:29.618Z,77.88
2016-12-03T01:52:29.621Z,78.16
2016-12-03T01:53:29.633Z,77.78
2016-12-03T01:54:29.648Z,77.88
2016-12-03T01:55:29.656Z,78.16
2016-12-03T01:56:30.010Z,78.16
2016-12-03T01:57:29.678Z,78.07
2016-12-03T01:58:29.697Z,77.88
2016-12-03T01:59:29.700Z,77.78
2016-12-03T02:00:29.722Z,78.26
2016-12-03T02:01:29.730Z,78.07
2016-12-03T02:02:29.742Z,78.16
2016-12-03T02:03:29.742Z,77.78
2016-12-03T02:04:29.759Z,77.78
2016-12-03T02:05:29.767Z,78.07
2016-12-03T02:06:29.772Z,78.26
2016-12-03T02:07:29.785Z,77.78
2016-12-03T02:08:29.797Z,78.16
2016-12-03T02:09:29.809Z,78.16
2016-12-03T02:10:29.818Z,77.78
2016-12-03T02:11:29.832Z,78.16
2016-12-03T02:12:29.853Z,78.16
2016-12-03T02:13:29.854Z,77.88
2016-12-03T02:14:29.858Z,77.88
2016-12-03T02:15:29.871Z,78.16
2016-12-03T02:16:29.890Z,78.35
2016-12-03T02:17:29.903Z,78.07
2016-12-03T02:18:29.913Z,78.07
2016-12-03T02:19:29.920Z,78.16
2016-12-03T02:20:29.928Z,78.16
2016-12-03T02:21:29.935Z,77.78
2016-12-03T02:22:29.945Z,78.26
2016-12-03T02:23:29.957Z,77.97
2016-12-03T02:24:29.978Z,78.07
2016-12-03T02:25:29.986Z,78.07
2016-12-03T02:26:29.991Z,77.97
2016-12-03T02:27:29.999Z,78.16
2016-12-03T02:28:30.017Z,78.16
2016-12-03T02:29:30.025Z,78.07
2016-12-03T02:30:30.031Z,78.45
2016-12-03T02:31:30.042Z,78.26
2016-12-03T02:32:30.055Z,78.26
2016-12-03T02:33:30.063Z,78.35
2016-12-03T02:34:30.086Z,77.97
2016-12-03T02:35:30.097Z,78.26
2016-12-03T02:36:30.101Z,77.88
2016-12-03T02:37:30.116Z,78.07
2016-12-03T02:38:30.116Z,78.07
2016-12-03T02:39:30.140Z,78.16
2016-12-03T02:40:30.141Z,78.07
2016-12-03T02:41:30.147Z,77.78
2016-12-03T02:42:30.158Z,77.78
2016-12-03T02:43:30.170Z,77.88
2016-12-03T02:44:30.191Z,78.16
2016-12-03T02:45:30.199Z,77.97
2016-12-03T02:46:30.202Z,78.26
2016-12-03T02:47:30.215Z,78.35
2016-12-03T02:48:30.223Z,77.88
2016-12-03T02:49:30.248Z,77.88
2016-12-03T02:50:30.253Z,78.26
2016-12-03T02:51:30.260Z,78.35
2016-12-03T02:52:30.616Z,78.26
2016-12-03T02:53:30.298Z,77.97
2016-12-03T02:54:30.292Z,77.97
2016-12-03T02:55:30.303Z,77.97
2016-12-03T02:56:30.310Z,77.97
2016-12-03T02:57:30.321Z,77.97
2016-12-03T02:58:30.325Z,77.78
2016-12-03T02:59:30.337Z,78.16
2016-12-03T03:00:30.349Z,78.07
2016-12-03T03:01:30.369Z,78.16
2016-12-03T03:02:30.374Z,78.16
2016-12-03T03:03:30.379Z,78.07
2016-12-03T03:04:30.400Z,78.07
2016-12-03T03:05:30.404Z,78.07
2016-12-03T03:06:30.411Z,77.78
2016-12-03T03:07:30.424Z,77.97
2016-12-03T03:08:30.431Z,78.54
2016-12-03T03:09:30.443Z,77.97
2016-12-03T03:10:30.461Z,77.88
2016-12-03T03:11:30.470Z,78.07
2016-12-03T03:12:30.480Z,78.07
2016-12-03T03:13:30.488Z,78.07
2016-12-03T03:14:30.497Z,77.97
2016-12-03T03:15:30.510Z,77.97
2016-12-03T03:16:30.526Z,78.03
2016-12-03T03:17:30.534Z,78.07
2016-12-03T03:18:30.885Z,78.16
2016-12-03T03:19:30.545Z,77.97
2016-12-03T03:20:30.555Z,78.07
2016-12-03T03:21:30.570Z,78.07
2016-12-03T03:22:30.603Z,77.97
2016-12-03T03:23:30.588Z,77.94
2016-12-03T03:24:30.602Z,78.07
2016-12-03T03:25:30.613Z,77.97
2016-12-03T03:26:30.621Z,78.07
2016-12-03T03:27:30.630Z,78.03
2016-12-03T03:28:30.641Z,77.97
2016-12-03T03:29:30.651Z,78.41
2016-12-03T03:30:30.663Z,77.97
2016-12-03T03:31:30.675Z,78.31
2016-12-03T03:32:30.694Z,78.07
2016-12-03T03:33:30.700Z,78.16
2016-12-03T03:34:30.703Z,78.13
2016-12-03T03:35:30.715Z,77.88
2016-12-03T03:36:30.726Z,77.69
2016-12-03T03:37:30.740Z,77.94
2016-12-03T03:38:30.749Z,78.35
2016-12-03T03:39:30.764Z,78.35
2016-12-03T03:40:30.775Z,78.35
2016-12-03T03:41:30.788Z,78.03
2016-12-03T03:42:30.794Z,78.22
2016-12-03T03:43:30.797Z,78.26
2016-12-03T03:44:30.809Z,77.94
2016-12-03T03:45:30.822Z,77.94
2016-12-03T03:46:30.846Z,78.22
2016-12-03T03:47:30.848Z,78.03
2016-12-03T03:48:31.201Z,78.22
2016-12-03T03:49:30.869Z,77.75
2016-12-03T03:50:30.876Z,78.31
2016-12-03T03:51:30.879Z,77.84
2016-12-03T03:52:30.892Z,77.94
2016-12-03T03:53:30.899Z,77.94
2016-12-03T03:54:30.911Z,78.31
2016-12-03T03:55:30.923Z,78.59
2016-12-03T03:56:30.932Z,78.69
2016-12-03T03:57:30.943Z,78.5
2016-12-03T03:58:30.961Z,78.13
2016-12-03T03:59:31.170Z,77.94
2016-12-03T04:00:30.977Z,78.03
2016-12-03T04:01:30.981Z,78.31
2016-12-03T04:02:31.000Z,78.03
2016-12-03T04:03:31.006Z,78.22
2016-12-03T04:04:31.013Z,78.13
2016-12-03T04:05:31.023Z,77.94
2016-12-03T04:06:31.028Z,78.22
2016-12-03T04:07:31.069Z,78.03
2016-12-03T04:08:31.053Z,77.94
2016-12-03T04:09:31.065Z,78.22
2016-12-03T04:10:31.073Z,78.13
2016-12-03T04:11:31.083Z,78.03
2016-12-03T04:12:31.104Z,78.31
2016-12-03T04:13:31.109Z,78.13
2016-12-03T04:14:31.114Z,77.94
2016-12-03T04:15:31.132Z,78.31
2016-12-03T04:16:31.390Z,78.5
2016-12-03T04:17:31.155Z,78.03
2016-12-03T04:18:31.165Z,77.94
2016-12-03T04:19:31.518Z,77.75
2016-12-03T04:20:31.531Z,78.03
2016-12-03T04:21:31.196Z,78.69
2016-12-03T04:22:31.212Z,78.59
2016-12-03T04:23:31.216Z,78.31
2016-12-03T04:24:31.219Z,78.03
2016-12-03T04:25:31.223Z,78.03
2016-12-03T04:26:31.235Z,77.94
2016-12-03T04:27:31.251Z,78.03
2016-12-03T04:28:31.255Z,78.13
2016-12-03T04:29:31.280Z,78.22
2016-12-03T04:30:31.284Z,78.03
2016-12-03T04:31:31.289Z,78.13
2016-12-03T04:32:31.306Z,78.59
2016-12-03T04:33:31.312Z,78.31
2016-12-03T04:34:31.317Z,78.13
2016-12-03T04:35:31.328Z,77.94
2016-12-03T04:36:31.336Z,77.84
2016-12-03T04:37:31.360Z,78.59
2016-12-03T04:38:31.367Z,78.13
2016-12-03T04:39:31.616Z,78.13
2016-12-03T04:40:31.388Z,78.03
2016-12-03T04:41:31.397Z,77.94
2016-12-03T04:42:31.411Z,78.5
2016-12-03T04:43:31.408Z,78.03
2016-12-03T04:44:31.422Z,78.22
2016-12-03T04:45:31.429Z,78.41
2016-12-03T04:46:31.439Z,78.22
2016-12-03T04:47:31.454Z,78.13
2016-12-03T04:48:31.469Z,78.31
2016-12-03T04:49:31.485Z,78.13
2016-12-03T04:50:31.479Z,78.31
2016-12-03T04:51:31.487Z,77.94
2016-12-03T04:52:31.529Z,78.03
2016-12-03T04:53:31.554Z,78.22
2016-12-03T04:54:31.524Z,78.03
2016-12-03T04:55:31.535Z,78.22
2016-12-03T04:56:31.549Z,78.03
2016-12-03T04:57:31.562Z,77.94
2016-12-03T04:58:31.567Z,78.5
2016-12-03T04:59:31.573Z,78.22
2016-12-03T05:00:31.583Z,78.41
2016-12-03T05:01:31.592Z,78.5
2016-12-03T05:02:31.600Z,78.59
2016-12-03T05:03:31.613Z,77.84
2016-12-03T05:04:31.633Z,78.31
2016-12-03T05:05:31.635Z,77.94
2016-12-03T05:06:31.645Z,78.03
2016-12-03T05:07:31.998Z,78.69
2016-12-03T05:08:31.666Z,78.5
2016-12-03T05:09:31.679Z,78.5
2016-12-03T05:10:31.684Z,78.13
2016-12-03T05:11:31.694Z,77.94
2016-12-03T05:12:31.735Z,77.94
2016-12-03T05:13:31.724Z,77.84
2016-12-03T05:14:31.729Z,78.22
2016-12-03T05:15:31.738Z,78.13
2016-12-03T05:16:31.744Z,78.03
2016-12-03T05:17:31.763Z,77.84
2016-12-03T05:18:31.771Z,78.69
2016-12-03T05:19:31.783Z,78.5
2016-12-03T05:20:31.783Z,78.5
2016-12-03T05:21:31.794Z,78.31
2016-12-03T05:22:31.812Z,78.31
2016-12-03T05:23:31.816Z,78.13
2016-12-03T05:24:31.825Z,78.13
2016-12-03T05:25:31.841Z,78.03
2016-12-03T05:26:31.855Z,78.22
2016-12-03T05:27:31.873Z,78.59
2016-12-03T05:28:31.876Z,78.31
2016-12-03T05:29:31.915Z,78.31
2016-12-03T05:30:31.904Z,78.22
2016-12-03T05:31:31.903Z,78.13
2016-12-03T05:32:31.911Z,78.31
2016-12-03T05:33:31.920Z,78.41
2016-12-03T05:34:31.928Z,78.31
2016-12-03T05:35:31.938Z,78.41
2016-12-03T05:36:31.949Z,78.31
2016-12-03T05:37:31.956Z,78.31
2016-12-03T05:38:31.966Z,78.22
2016-12-03T05:39:31.979Z,78.5
2016-12-03T05:40:31.994Z,78.59
2016-12-03T05:41:32.026Z,78.31
2016-12-03T05:42:32.017Z,78.31
2016-12-03T05:43:32.022Z,77.94
2016-12-03T05:44:32.033Z,78.41
2016-12-03T05:45:32.037Z,78.5
2016-12-03T05:46:32.286Z,78.59
2016-12-03T05:47:32.058Z,78.5
2016-12-03T05:48:32.065Z,78.22
2016-12-03T05:49:32.078Z,78.41
2016-12-03T05:50:32.093Z,78.31
2016-12-03T05:51:32.095Z,78.13
2016-12-03T05:52:32.107Z,78.31
2016-12-03T05:53:32.118Z,78.79
2016-12-03T05:54:32.134Z,78.79
2016-12-03T05:55:32.143Z,78.41
2016-12-03T05:56:32.145Z,78.31
2016-12-03T05:57:32.166Z,78.5
2016-12-03T05:58:32.179Z,78.59
2016-12-03T05:59:32.175Z,78.5
2016-12-03T06:00:32.184Z,78.59
2016-12-03T06:01:32.197Z,78.5
2016-12-03T06:02:32.217Z,78.41
2016-12-03T06:03:32.219Z,78.31
2016-12-03T06:04:32.225Z,78.31
2016-12-03T06:05:32.251Z,78.22
2016-12-03T06:06:32.248Z,78.31
2016-12-03T06:07:32.256Z,78.03
2016-12-03T06:08:32.264Z,78.22
2016-12-03T06:09:32.275Z,78.31
2016-12-03T06:10:32.286Z,78.13
2016-12-03T06:11:32.301Z,77.94
2016-12-03T06:12:32.315Z,78.22
2016-12-03T06:13:32.637Z,78.59
2016-12-03T06:14:32.326Z,78.5
2016-12-03T06:15:32.334Z,78.79
2016-12-03T06:16:32.344Z,78.31
2016-12-03T06:17:32.357Z,78.31
2016-12-03T06:18:32.378Z,78.69
2016-12-03T06:19:32.384Z,78.31
2016-12-03T06:20:32.386Z,78.22
2016-12-03T06:21:32.396Z,78.31
2016-12-03T06:22:32.405Z,78.59
2016-12-03T06:23:32.414Z,78.22
2016-12-03T06:24:32.741Z,78.5
2016-12-03T06:25:32.448Z,78.22
2016-12-03T06:26:32.454Z,78.5
2016-12-03T06:27:32.465Z,78.22
2016-12-03T06:28:32.472Z,78.13
2016-12-03T06:29:32.478Z,78.22
2016-12-03T06:30:32.486Z,78.5
2016-12-03T06:31:32.501Z,78.22
2016-12-03T06:32:32.505Z,78.22
2016-12-03T06:33:32.523Z,78.31
2016-12-03T06:34:32.527Z,78.41
2016-12-03T06:35:32.541Z,78.59
2016-12-03T06:36:32.545Z,78.59
2016-12-03T06:37:32.572Z,78.59
2016-12-03T06:38:32.571Z,78.22
2016-12-03T06:39:32.574Z,78.31
2016-12-03T06:40:32.588Z,78.31
2016-12-03T06:41:32.601Z,78.59
2016-12-03T06:42:32.604Z,78.69
2016-12-03T06:43:32.622Z,78.5
2016-12-03T06:44:32.625Z,78.13
2016-12-03T06:45:32.634Z,78.69
2016-12-03T06:46:32.652Z,78.22
2016-12-03T06:47:32.654Z,78.41
2016-12-03T06:48:32.987Z,78.22
2016-12-03T06:49:32.678Z,78.03
2016-12-03T06:50:32.685Z,78.22
2016-12-03T06:51:32.696Z,78.59
2016-12-03T06:52:32.703Z,78.13
2016-12-03T06:53:32.713Z,78.22
2016-12-03T06:54:32.734Z,78.5
2016-12-03T06:55:33.080Z,78.79
2016-12-03T06:56:32.743Z,78.5
2016-12-03T06:57:32.763Z,78.79
2016-12-03T06:58:33.119Z,78.59
2016-12-03T06:59:32.770Z,78.59
2016-12-03T07:00:32.785Z,78.59
2016-12-03T07:01:32.798Z,78.13
2016-12-03T07:02:32.802Z,78.22
2016-12-03T07:03:32.818Z,78.59
2016-12-03T07:04:32.820Z,78.41
2016-12-03T07:05:32.835Z,78.03
2016-12-03T07:06:32.843Z,78.13
2016-12-03T07:07:32.858Z,78.22
2016-12-03T07:08:32.866Z,78.31
2016-12-03T07:09:33.225Z,78.41
2016-12-03T07:10:32.882Z,78.41
2016-12-03T07:11:32.898Z,78.79
2016-12-03T07:12:32.903Z,78.5
2016-12-03T07:13:32.914Z,78.41
2016-12-03T07:14:32.935Z,78.13
2016-12-03T07:15:32.930Z,78.13
2016-12-03T07:16:32.941Z,78.69
2016-12-03T07:17:32.956Z,78.41
2016-12-03T07:18:32.962Z,78.69
2016-12-03T07:19:32.970Z,78.69
2016-12-03T07:20:32.982Z,78.79
2016-12-03T07:21:32.991Z,78.69
2016-12-03T07:22:32.999Z,78.5
2016-12-03T07:23:33.010Z,78.13
2016-12-03T07:24:33.027Z,78.27
2016-12-03T07:25:33.030Z,78.69
2016-12-03T07:26:33.097Z,78.31
2016-12-03T07:27:33.058Z,78.13
2016-12-03T07:28:33.055Z,78.5
2016-12-03T07:29:33.072Z,78.5
2016-12-03T07:30:33.077Z,78.31
2016-12-03T07:31:33.089Z,78.22
2016-12-03T07:32:33.110Z,78.22
2016-12-03T07:33:33.107Z,78.13
2016-12-03T07:34:33.125Z,78.31
2016-12-03T07:35:33.128Z,78.31
2016-12-03T07:36:33.186Z,78.41
2016-12-03T07:37:33.158Z,78.5
2016-12-03T07:38:33.157Z,78.5
2016-12-03T07:39:33.170Z,78.41
2016-12-03T07:40:33.185Z,78.31
2016-12-03T07:41:33.187Z,78.69
2016-12-03T07:42:33.200Z,78.59
2016-12-03T07:43:33.210Z,78.59
2016-12-03T07:44:33.221Z,78.69
2016-12-03T07:45:33.233Z,78.31
2016-12-03T07:46:33.290Z,77.75
2016-12-03T07:47:33.253Z,78.03
2016-12-03T07:48:33.256Z,78.31
2016-12-03T07:49:33.268Z,78.31
2016-12-03T07:50:33.276Z,78.5
2016-12-03T07:51:33.343Z,78.22
2016-12-03T07:52:33.301Z,78.13
2016-12-03T07:53:33.308Z,78.22
2016-12-03T07:54:33.315Z,78.31
2016-12-03T07:55:33.326Z,78.31
2016-12-03T07:56:33.343Z,78.31
2016-12-03T07:57:33.378Z,78.69
2016-12-03T07:58:33.364Z,78.31
2016-12-03T07:59:33.368Z,78.41
2016-12-03T08:00:33.374Z,78.5
2016-12-03T08:01:33.389Z,78.5
2016-12-03T08:02:33.396Z,78.5
2016-12-03T08:03:33.404Z,78.59
2016-12-03T08:04:33.419Z,78.5
2016-12-03T08:05:33.432Z,78.13
2016-12-03T08:06:33.433Z,78.13
2016-12-03T08:07:33.442Z,78.31
2016-12-03T08:08:33.463Z,78.31
2016-12-03T08:09:33.468Z,78.31
2016-12-03T08:10:33.477Z,78.03
2016-12-03T08:11:33.536Z,78.31
2016-12-03T08:12:33.501Z,78.5
2016-12-03T08:13:33.516Z,78.31
2016-12-03T08:14:33.519Z,78.59
2016-12-03T08:15:33.526Z,78.79
2016-12-03T08:16:33.550Z,78.69
2016-12-03T08:17:33.546Z,78.22
2016-12-03T08:18:33.555Z,78.31
2016-12-03T08:19:33.564Z,78.31
2016-12-03T08:20:33.574Z,78.31
2016-12-03T08:21:33.579Z,78.31
2016-12-03T08:22:33.597Z,78.22
2016-12-03T08:23:33.603Z,78.59
2016-12-03T08:24:33.612Z,78.31
2016-12-03T08:25:33.622Z,78.22
2016-12-03T08:26:33.685Z,78.22
2016-12-03T08:27:33.642Z,78.03
2016-12-03T08:28:33.661Z,78.5
2016-12-03T08:29:33.667Z,77.84
2016-12-03T08:30:33.672Z,78.22
2016-12-03T08:31:33.681Z,78.59
2016-12-03T08:32:33.694Z,78.22
2016-12-03T08:33:33.707Z,78.03
2016-12-03T08:34:33.721Z,78.22
2016-12-03T08:35:33.728Z,78.59
2016-12-03T08:36:33.780Z,78.69
2016-12-03T08:37:33.739Z,78.59
2016-12-03T08:38:33.749Z,78.41
2016-12-03T08:39:33.765Z,78.41
2016-12-03T08:40:33.771Z,78.13
2016-12-03T08:41:33.790Z,78.22
2016-12-03T08:42:33.795Z,78.31
2016-12-03T08:43:33.799Z,78.31
2016-12-03T08:44:33.809Z,78.31
2016-12-03T08:45:33.829Z,78.22
2016-12-03T08:46:33.834Z,78.22
2016-12-03T08:47:33.838Z,78.5
2016-12-03T08:48:33.848Z,78.03
2016-12-03T08:49:33.856Z,77.94
2016-12-03T08:50:34.183Z,78.22
2016-12-03T08:51:33.928Z,78.22
2016-12-03T08:52:33.889Z,77.97
2016-12-03T08:53:33.910Z,78.22
2016-12-03T08:54:33.913Z,78.13
2016-12-03T08:55:33.920Z,78.41
2016-12-03T08:56:33.938Z,78.54
2016-12-03T08:57:33.953Z,78.73
2016-12-03T08:58:34.287Z,78.16
2016-12-03T08:59:33.958Z,78.31
2016-12-03T09:00:33.968Z,77.84
2016-12-03T09:01:33.989Z,78.69
2016-12-03T09:02:33.993Z,78.83
2016-12-03T09:03:33.998Z,78.35
2016-12-03T09:04:34.007Z,77.97
2016-12-03T09:05:34.018Z,78.35
2016-12-03T09:06:34.036Z,78.73
2016-12-03T09:07:34.038Z,78.35
2016-12-03T09:08:34.051Z,78.26
2016-12-03T09:09:34.059Z,78.35
2016-12-03T09:10:34.071Z,78.35
2016-12-03T09:11:34.127Z,78.45
2016-12-03T09:12:34.093Z,78.45
2016-12-03T09:13:34.100Z,77.97
2016-12-03T09:14:34.119Z,78.07
2016-12-03T09:15:34.122Z,77.97
2016-12-03T09:16:34.131Z,77.97
2016-12-03T09:17:34.142Z,78.07
2016-12-03T09:18:34.165Z,78.07
2016-12-03T09:19:34.165Z,78.07
2016-12-03T09:20:34.175Z,78.26
2016-12-03T09:21:34.187Z,78.07
2016-12-03T09:22:34.191Z,78.16
2016-12-03T09:23:34.245Z,78.07
2016-12-03T09:24:34.217Z,78.07
2016-12-03T09:25:34.225Z,77.97
2016-12-03T09:26:34.280Z,77.88
2016-12-03T09:27:34.240Z,77.69
2016-12-03T09:28:34.268Z,77.69
2016-12-03T09:29:34.265Z,77.97
2016-12-03T09:30:34.273Z,77.5
2016-12-03T09:31:34.336Z,77.59
2016-12-03T09:32:34.631Z,77.59
2016-12-03T09:33:34.310Z,77.78
2016-12-03T09:34:34.320Z,77.78
2016-12-03T09:35:34.324Z,77.59
2016-12-03T09:36:34.335Z,77.5
2016-12-03T09:37:34.343Z,77.78
2016-12-03T09:38:34.357Z,77.5
2016-12-03T09:39:34.700Z,77.5
2016-12-03T09:40:34.372Z,77.78
2016-12-03T09:41:34.434Z,77.5
2016-12-03T09:42:34.393Z,77.5
2016-12-03T09:43:34.409Z,77.59
2016-12-03T09:44:34.421Z,77.78
2016-12-03T09:45:34.429Z,77.78
2016-12-03T09:46:34.445Z,77.78
2016-12-03T09:47:34.453Z,77.78
2016-12-03T09:48:34.461Z,77.88
2016-12-03T09:49:34.473Z,77.31
2016-12-03T09:50:34.476Z,77.88
2016-12-03T09:51:34.497Z,77.69
2016-12-03T09:52:34.852Z,77.78
2016-12-03T09:53:34.515Z,77.88
2016-12-03T09:54:34.515Z,77.59
2016-12-03T09:55:34.525Z,77.59
2016-12-03T09:56:34.540Z,77.64
2016-12-03T09:57:34.544Z,77.64
2016-12-03T09:58:34.556Z,77.83
2016-12-03T09:59:34.577Z,77.73
2016-12-03T10:00:34.575Z,77.64
2016-12-03T10:01:34.587Z,77.54
2016-12-03T10:02:34.596Z,77.54
2016-12-03T10:03:34.618Z,77.64
2016-12-03T10:04:34.614Z,77.64
2016-12-03T10:05:34.627Z,77.54
2016-12-03T10:06:34.636Z,77.73
2016-12-03T10:07:34.654Z,77.83
2016-12-03T10:08:34.666Z,77.64
2016-12-03T10:09:34.679Z,77.64
2016-12-03T10:10:34.679Z,77.73
2016-12-03T10:11:34.697Z,77.73
2016-12-03T10:12:34.708Z,77.83
2016-12-03T10:13:34.710Z,77.92
2016-12-03T10:14:34.721Z,77.83
2016-12-03T10:15:34.731Z,77.25
2016-12-03T10:16:34.795Z,77.45
2016-12-03T10:17:35.090Z,77.64
2016-12-03T10:18:34.762Z,77.45
2016-12-03T10:19:34.802Z,77.25
2016-12-03T10:20:34.787Z,76.97
2016-12-03T10:21:34.907Z,77.45
2016-12-03T10:22:34.805Z,76.78
2016-12-03T10:23:34.818Z,76.59
2016-12-03T10:24:34.825Z,76.87
2016-12-03T10:25:34.836Z,76.78
2016-12-03T10:26:34.847Z,77.06
2016-12-03T10:27:34.864Z,77.06
2016-12-03T10:28:34.874Z,76.4
2016-12-03T10:29:34.879Z,76.59
2016-12-03T10:30:34.901Z,76.31
2016-12-03T10:31:34.907Z,76.5
2016-12-03T10:32:34.921Z,76.68
2016-12-03T10:33:34.927Z,76.21
2016-12-03T10:34:35.281Z,76.21
2016-12-03T10:35:34.951Z,76.21
2016-12-03T10:36:34.951Z,76.21
2016-12-03T10:37:35.304Z,76.87
2016-12-03T10:38:35.318Z,76.78
2016-12-03T10:39:34.995Z,76.4
2016-12-03T10:40:35.002Z,76.5
2016-12-03T10:41:35.006Z,76.54
2016-12-03T10:42:35.257Z,76.54
2016-12-03T10:43:35.404Z,76.54
2016-12-03T10:44:35.429Z,76.54
2016-12-03T10:45:35.082Z,76.54
2016-12-03T10:46:35.067Z,76.44
2016-12-03T10:47:35.071Z,76.63
2016-12-03T10:48:35.117Z,76.92
2016-12-03T10:49:35.132Z,76.44
2016-12-03T10:50:35.130Z,76.34
2016-12-03T10:51:35.369Z,76.92
2016-12-03T10:52:35.503Z,76.54
2016-12-03T10:53:35.142Z,76.54
2016-12-03T10:54:35.182Z,76.63
2016-12-03T10:55:35.157Z,76.25
2016-12-03T10:56:35.221Z,76.54
2016-12-03T10:57:35.178Z,76.63
2016-12-03T10:58:35.223Z,76.44
2016-12-03T10:59:35.551Z,76.44
2016-12-03T11:00:35.212Z,76.25
2016-12-03T11:01:35.279Z,76.25
2016-12-03T11:02:35.313Z,76.34
2016-12-03T11:03:35.247Z,76.44
2016-12-03T11:04:35.254Z,76.34
2016-12-03T11:05:35.262Z,76.44
2016-12-03T11:06:35.273Z,76.34
2016-12-03T11:07:35.285Z,76.15
2016-12-03T11:08:35.296Z,76.44
2016-12-03T11:09:35.420Z,76.25
2016-12-03T11:10:35.389Z,76.15
2016-12-03T11:11:35.328Z,76.25
2016-12-03T11:12:35.348Z,76.63
2016-12-03T11:13:35.356Z,76.44
2016-12-03T11:14:35.360Z,76.73
2016-12-03T11:15:35.373Z,76.44
2016-12-03T11:16:35.435Z,76.44
2016-12-03T11:17:35.395Z,76.25
2016-12-03T11:18:35.406Z,76.25
2016-12-03T11:19:35.431Z,76.44
2016-12-03T11:20:35.429Z,75.78
2016-12-03T11:21:35.493Z,75.78
2016-12-03T11:22:35.452Z,76.01
2016-12-03T11:23:35.465Z,75.96
2016-12-03T11:24:35.475Z,76.06
2016-12-03T11:25:35.487Z,75.68
2016-12-03T11:26:35.498Z,75.4
2016-12-03T11:27:35.507Z,75.15
2016-12-03T11:28:35.522Z,74.92
2016-12-03T11:29:35.530Z,75.11
2016-12-03T11:30:35.544Z,75.15
2016-12-03T11:31:35.563Z,75.11
2016-12-03T11:32:35.570Z,75.11
2016-12-03T11:33:35.579Z,75.15
2016-12-03T11:34:35.592Z,75.72
2016-12-03T11:35:35.598Z,74.77
2016-12-03T11:36:35.608Z,75.05
2016-12-03T11:37:35.621Z,75.53
2016-12-03T11:38:35.632Z,75.05
2016-12-03T11:39:35.645Z,75.24
2016-12-03T11:40:35.655Z,74.68
2016-12-03T11:41:35.669Z,74.77
2016-12-03T11:42:35.679Z,75.15
2016-12-03T11:43:35.689Z,74.96
2016-12-03T11:44:35.699Z,75.05
2016-12-03T11:45:35.833Z,75.15
2016-12-03T11:46:35.846Z,74.87
2016-12-03T11:47:35.854Z,75.05
2016-12-03T11:48:35.860Z,75.05
2016-12-03T11:49:35.868Z,74.87
2016-12-03T11:50:35.868Z,74.87
2016-12-03T11:51:35.877Z,74.2
2016-12-03T11:52:35.887Z,74.87
2016-12-03T11:53:35.806Z,74.68
2016-12-03T11:54:35.925Z,75.15
2016-12-03T11:55:35.926Z,75.15
2016-12-03T11:56:35.889Z,75.24
2016-12-03T11:57:35.850Z,74.87
2016-12-03T11:58:35.862Z,74.87
2016-12-03T11:59:35.876Z,75.05
2016-12-03T12:00:35.998Z,75.05
2016-12-03T12:01:36.005Z,74.39
2016-12-03T12:02:36.012Z,74.3
2016-12-03T12:03:36.021Z,74.87
2016-12-03T12:04:36.030Z,74.58
2016-12-03T12:05:36.053Z,74.49
2016-12-03T12:06:36.061Z,74.58
2016-12-03T12:07:36.069Z,74.58
2016-12-03T12:08:35.982Z,74.58
2016-12-03T12:09:36.085Z,74.58
2016-12-03T12:10:36.102Z,74.49
2016-12-03T12:11:36.112Z,74.58
2016-12-03T12:12:36.120Z,74.77
2016-12-03T12:13:36.118Z,74.3
2016-12-03T12:14:36.137Z,74.39
2016-12-03T12:15:36.140Z,74.96
2016-12-03T12:16:36.149Z,74.77
2016-12-03T12:17:36.157Z,74.49
2016-12-03T12:18:36.167Z,74.3
2016-12-03T12:19:36.108Z,74.58
2016-12-03T12:20:36.194Z,74.68
2016-12-03T12:21:36.183Z,74.39
2016-12-03T12:22:36.139Z,74.3
2016-12-03T12:23:36.152Z,74.58
2016-12-03T12:24:36.167Z,74.87
2016-12-03T12:25:36.176Z,74.49
2016-12-03T12:26:36.185Z,74.68
2016-12-03T12:27:36.209Z,74.11
2016-12-03T12:28:36.216Z,74.39
2016-12-03T12:29:36.224Z,74.58
2016-12-03T12:30:36.243Z,74.49
2016-12-03T12:31:36.298Z,74.49
2016-12-03T12:32:36.260Z,74.77
2016-12-03T12:33:36.273Z,74.3
2016-12-03T12:34:36.280Z,74.11
2016-12-03T12:35:36.294Z,74.58
2016-12-03T12:36:36.359Z,74.68
2016-12-03T12:37:36.315Z,74.77
2016-12-03T12:38:36.330Z,74.49
2016-12-03T12:39:36.341Z,74.96
2016-12-03T12:40:36.362Z,74.87
2016-12-03T12:41:36.363Z,75.15
2016-12-03T12:42:36.382Z,74.96
2016-12-03T12:43:36.387Z,75.15
2016-12-03T12:44:36.398Z,75.05
2016-12-03T12:45:36.418Z,75.15
2016-12-03T12:46:36.475Z,75.15
2016-12-03T12:47:36.463Z,74.96
2016-12-03T12:48:36.448Z,74.96
2016-12-03T12:49:36.464Z,75.15
2016-12-03T12:50:36.473Z,75.34
2016-12-03T12:51:36.532Z,74.96
2016-12-03T12:52:36.498Z,75.15
2016-12-03T12:53:36.503Z,75.24
2016-12-03T12:54:36.525Z,75.24